Nezperce, ID

4:35 AM PDT on October 01, 2014 (GMT -0700)
Lowell | Change Station
CLOSE
Current Station
Airport
Location: Lowell,
Elevation: 1480 ft
Nearby Weather Stations

Elev 1480 ft 46.14 °N, 115.60 °W | Updated 1 hour ago

Mostly Cloudy
Mostly Cloudy
47 °F
Feels Like 47 °F
N
4
Wind Variable Wind from NNW
Gusts 2 mph

Today
High -- | Low -- °F
--% Chance of Precip.
Yesterday
High -- | Low -- °F
Precip. -- in
6:43 AM 6:24 PM
Waxing Crescent, 46% visible
Pressure 30.11 in
Visibility -9999.0 miles
Clouds
Dew Point 45 °F
Humidity 93%
Rainfall 0.01 in
Snow Depth 1 in , 0 in , 1 in
UV Not available.
Pollen 5.80 out of 12
PM2.5 Good
Flu Activity Not available.
METAR KP69 010952Z AUTO 33003KT 08/07 A3011 RMK AO1 SLP195 T00830072

More Conditions Fewer Conditions

Pressure 30.11 in
Visibility -9999.0 miles
Clouds
Dew Point 45 °F
Humidity 93%
Rainfall 0.01 in
Snow Depth 1 in , 0 in , 1 in
UV Not available.
Pollen 5.80 out of 12
PM2.5 Good
Flu Activity Not available.
METAR KP69 010952Z AUTO 33003KT 08/07 A3011 RMK AO1 SLP195 T00830072

More Conditions Fewer Conditions

10-Day Weather Forecast

Almanac

Astronomy

Oct. 01, 2014 Rise Set
Actual Time 6:43 AM PDT 6:24 PM PDT
Civil Twilight 6:13 AM PDT 6:54 PM PDT
Nautical Twilight 5:38 AM PDT 7:29 PM PDT
Astronomical Twilight 5:03 AM PDT 8:04 PM PDT
Moon 2:02 PM PDT 11:47 PM PDT
Length of Visible Light 12h 40m
Length of Day
11h 41m
Tomorrow will be 3m 14s shorter.
Waxing Crescent, 46% of the Moon is Illuminated
Today
Waxing Crescent
Oct 1
First Quarter
Oct 8
Full
Oct 15
Last Quarter
Oct 23
New

Today's Extremes

State Highs State Lows

Community

WunderPhotos

Upload Photos

1,757,913 photos uploaded!

Nearby

Air Quality

  Air Quality AQ Index Pollutant
Yesterday Good
PM2.5
Current Good
PM2.5
Wednesday Good
PM2.5
Thursday Good
PM2.5

Snow Depth

Station Depth Elevation
Magic Mountain 1 in 6880 ft
Vienna Mine 0 in 8960 ft
Cozy Cove 1 in 5380 ft
Lookout 0 in 5140 ft
Mica Creek 1 in 4750 ft

Earthquake Activity

City Distance Mag. Time & Date
No recent earthquake activity has been reported nearby.
Minimum magnitude displayed is 2.5.

Coastal Water Temperatures

Place Temperature
No Stations Reporting

Nearby Weather Stations